Time;durP1;ratioP1;P1;durP2;ratioP2;P2;SDS_P1;SDS_P2;PMS_P1;PMS_P2;Temp;Humidity;BMP_temperature;BMP_pressure;BME280_temperature;BME280_humidity;BME280_pressure;Samples;Min_cycle;Max_cycle;Signal;HPM_P1;HPM_P2
2023/05/05 00:00:15;;;;;;;6.20;4.03;;;;;;;8.61;100.00;95944.75;1034742;28;20488;-69
2023/05/05 00:00:45;;;;;;;7.82;4.30;;;;;;;8.60;100.00;95948.41;1032896;28;20029;-70
2023/05/05 00:01:19;;;;;;;6.72;4.20;;;;;;;8.59;100.00;95946.81;1036122;28;20070;-71
2023/05/05 00:01:49;;;;;;;8.63;4.20;;;;;;;8.53;100.00;95932.09;1035017;28;20518;-70
2023/05/05 00:02:20;;;;;;;5.50;4.10;;;;;;;8.60;100.00;95942.38;1026542;28;20353;-71
2023/05/05 00:02:51;;;;;;;7.82;4.20;;;;;;;8.59;100.00;95946.81;1026294;28;20092;-70
2023/05/05 00:03:22;;;;;;;9.10;4.90;;;;;;;8.55;100.00;95937.91;1026443;28;20269;-70
2023/05/05 00:03:52;;;;;;;6.97;4.05;;;;;;;8.54;100.00;95936.28;1022517;29;20035;-71
2023/05/05 00:04:23;;;;;;;6.45;3.90;;;;;;;8.58;100.00;95942.63;1018852;29;20024;-70
2023/05/05 00:04:54;;;;;;;7.13;4.32;;;;;;;8.55;100.00;95937.91;1018356;29;20038;-71
2023/05/05 00:05:24;;;;;;;7.20;4.10;;;;;;;8.57;100.00;95943.66;1022463;29;20027;-71
2023/05/05 00:05:55;;;;;;;8.35;4.32;;;;;;;8.56;100.00;95946.53;1026297;28;20039;-70
2023/05/05 00:06:27;;;;;;;6.72;4.07;;;;;;;8.55;100.00;95944.94;1034595;28;20026;-70
2023/05/05 00:06:58;;;;;;;10.20;4.28;;;;;;;8.53;100.00;95942.56;1030540;28;20017;-71
2023/05/05 00:07:28;;;;;;;6.20;3.92;;;;;;;8.54;100.00;95940.75;1030991;28;20552;-70
2023/05/05 00:07:59;;;;;;;5.47;4.05;;;;;;;8.50;100.00;95937.81;1034184;28;20260;-70
2023/05/05 00:08:29;;;;;;;7.68;4.13;;;;;;;8.51;100.00;95936.78;1030977;28;20026;-71
2023/05/05 00:09:00;;;;;;;8.65;4.28;;;;;;;8.53;100.00;95944.41;1025999;28;20038;-70
2023/05/05 00:09:30;;;;;;;5.90;3.83;;;;;;;8.52;100.00;95941.00;1030696;28;20027;-70
2023/05/05 00:10:01;;;;;;;5.50;3.80;;;;;;;8.49;100.00;95931.03;1030420;28;20022;-70
2023/05/05 00:10:31;;;;;;;6.70;4.47;;;;;;;8.50;100.00;95935.22;1034620;28;20025;-71
2023/05/05 00:11:01;;;;;;;6.13;4.10;;;;;;;8.50;100.00;95936.00;1034554;28;20104;-71
2023/05/05 00:11:32;;;;;;;5.60;4.30;;;;;;;8.52;100.00;95937.56;1034550;28;20030;-72
2023/05/05 00:12:02;;;;;;;6.95;3.78;;;;;;;8.50;100.00;95937.81;1030513;28;20742;-70
2023/05/05 00:12:33;;;;;;;8.30;4.32;;;;;;;8.49;100.00;95941.47;1026582;28;20559;-70
2023/05/05 00:13:03;;;;;;;6.68;4.18;;;;;;;8.49;100.00;95947.50;1026318;28;20015;-70
2023/05/05 00:13:34;;;;;;;5.45;3.75;;;;;;;8.48;100.00;95934.66;1026713;28;20026;-70
2023/05/05 00:14:05;;;;;;;6.30;4.05;;;;;;;8.46;100.00;95927.06;1026571;28;20080;-71
2023/05/05 00:14:35;;;;;;;5.72;4.28;;;;;;;8.48;100.00;95934.66;1026790;28;20066;-70
2023/05/05 00:15:06;;;;;;;9.70;4.20;;;;;;;8.41;100.00;95924.38;1030371;28;20269;-69
2023/05/05 00:15:37;;;;;;;7.28;3.92;;;;;;;8.40;100.00;95922.03;1027160;28;20620;-70
2023/05/05 00:16:07;;;;;;;11.07;4.32;;;;;;;8.47;100.00;95933.88;1026550;28;20022;-70
2023/05/05 00:16:38;;;;;;;7.40;4.35;;;;;;;8.44;100.00;95928.34;1030516;28;20025;-70
2023/05/05 00:17:08;;;;;;;7.38;4.60;;;;;;;8.46;100.00;95934.13;1030686;28;20479;-70
2023/05/05 00:17:39;;;;;;;5.53;3.97;;;;;;;8.41;100.00;95923.59;1030636;28;20026;-70
2023/05/05 00:18:10;;;;;;;8.50;4.20;;;;;;;8.47;100.00;95930.47;1030403;28;20358;-69
2023/05/05 00:18:40;;;;;;;6.90;4.25;;;;;;;8.43;100.00;95927.56;1025903;28;20376;-69
2023/05/05 00:19:11;;;;;;;6.75;4.28;;;;;;;8.43;100.00;95930.16;1022496;28;20596;-71
2023/05/05 00:19:41;;;;;;;6.30;4.18;;;;;;;8.44;100.00;95929.13;1022623;28;20019;-70
2023/05/05 00:20:12;;;;;;;9.35;4.05;;;;;;;8.43;100.00;95926.75;1022354;28;20023;-70
2023/05/05 00:20:46;;;;;;;5.28;3.55;;;;;;;8.38;100.00;95918.84;1022708;28;20020;-70
2023/05/05 00:21:16;;;;;;;7.72;4.50;;;;;;;8.36;100.00;95913.06;1019037;29;20139;-70
2023/05/05 00:21:47;;;;;;;8.50;4.53;;;;;;;8.42;100.00;95925.19;1018857;29;20264;-71
2023/05/05 00:22:18;;;;;;;6.47;4.25;;;;;;;8.40;100.00;95922.03;1019151;29;20035;-71
2023/05/05 00:22:48;;;;;;;6.38;3.95;;;;;;;8.41;100.00;95923.59;1019206;28;20087;-70
2023/05/05 00:23:19;;;;;;;6.93;4.53;;;;;;;8.41;100.00;95923.59;1026479;28;20030;-70
2023/05/05 00:23:50;;;;;;;8.45;5.18;;;;;;;8.39;100.00;95926.47;1026702;28;20019;-70
2023/05/05 00:24:20;;;;;;;7.75;4.25;;;;;;;8.34;100.00;95918.50;1030626;28;20027;-70
2023/05/05 00:24:50;;;;;;;8.18;3.85;;;;;;;8.39;100.00;95920.44;1018488;29;20075;-70
2023/05/05 00:25:21;;;;;;;5.32;3.60;;;;;;;8.38;100.00;95924.84;1026291;28;20026;-70
2023/05/05 00:25:51;;;;;;;6.07;4.00;;;;;;;8.37;100.00;95922.47;1030391;28;20176;-70
2023/05/05 00:26:22;;;;;;;6.03;3.95;;;;;;;8.35;100.00;95919.31;1030513;28;20038;-70
2023/05/05 00:26:52;;;;;;;7.93;4.70;;;;;;;8.34;100.00;95925.56;1034285;28;20404;-70
2023/05/05 00:27:23;;;;;;;9.60;4.40;;;;;;;8.34;100.00;95920.34;1034579;28;20630;-70
2023/05/05 00:27:54;;;;;;;9.55;5.03;;;;;;;8.28;100.00;95919.47;1034487;28;20028;-70
2023/05/05 00:28:24;;;;;;;7.25;4.07;;;;;;;8.32;100.00;95925.81;1030401;28;20500;-70
2023/05/05 00:28:55;;;;;;;7.32;4.10;;;;;;;8.32;100.00;95933.66;1025959;28;20015;-68
2023/05/05 00:29:25;;;;;;;9.32;4.15;;;;;;;8.32;100.00;95928.44;1026713;28;20031;-70
2023/05/05 00:29:56;;;;;;;7.03;3.97;;;;;;;8.31;100.00;95924.22;1030621;28;20443;-70
2023/05/05 00:30:26;;;;;;;11.20;4.75;;;;;;;8.31;100.00;95929.44;1030552;28;20531;-71
2023/05/05 00:30:57;;;;;;;6.07;4.10;;;;;;;8.25;100.00;95920.78;1031066;28;20018;-69
2023/05/05 00:31:27;;;;;;;6.22;3.67;;;;;;;8.32;100.00;95931.06;1027395;28;20026;-70
2023/05/05 00:31:58;;;;;;;8.55;4.45;;;;;;;8.32;100.00;95925.81;1026752;28;20320;-70
2023/05/05 00:32:28;;;;;;;7.10;4.60;;;;;;;8.31;100.00;95926.06;1023041;28;20090;-70
2023/05/05 00:32:59;;;;;;;7.15;4.28;;;;;;;8.24;100.00;95916.56;1026838;28;20027;-71
2023/05/05 00:33:29;;;;;;;5.85;4.30;;;;;;;8.30;100.00;95927.09;1030985;28;20022;-70
2023/05/05 00:34:00;;;;;;;6.50;4.40;;;;;;;8.30;100.00;95927.88;1027128;28;20027;-70
2023/05/05 00:34:30;;;;;;;5.28;4.28;;;;;;;8.28;100.00;95927.31;1030729;28;20381;-71
2023/05/05 00:35:01;;;;;;;6.85;4.30;;;;;;;8.26;100.00;95922.34;1026863;28;20755;-71
2023/05/05 00:35:31;;;;;;;5.78;4.00;;;;;;;8.27;100.00;95926.53;1026758;28;20034;-71
2023/05/05 00:36:02;;;;;;;6.30;4.43;;;;;;;8.27;100.00;95929.16;1030834;28;20113;-71
2023/05/05 00:36:32;;;;;;;8.63;4.20;;;;;;;8.27;100.00;95923.91;1030751;28;20022;-70
2023/05/05 00:37:03;;;;;;;7.53;4.88;;;;;;;8.25;100.00;95926.00;1034619;28;20021;-70
2023/05/05 00:37:33;;;;;;;7.07;4.68;;;;;;;8.25;100.00;95920.78;1034697;28;20026;-70
2023/05/05 00:38:03;;;;;;;8.93;3.83;;;;;;;8.25;100.00;95926.00;1030588;28;20475;-70
2023/05/05 00:38:34;;;;;;;7.57;4.30;;;;;;;8.25;100.00;95926.00;1030011;28;20026;-68
2023/05/05 00:39:05;;;;;;;6.43;3.83;;;;;;;8.24;100.00;95927.03;1026107;28;20023;-71
2023/05/05 00:39:35;;;;;;;9.35;4.25;;;;;;;8.23;100.00;95925.44;1026436;28;20022;-70
2023/05/05 00:40:06;;;;;;;7.45;4.15;;;;;;;8.23;100.00;95922.03;1026688;28;20019;-70
2023/05/05 00:40:37;;;;;;;6.80;4.28;;;;;;;8.22;100.00;95925.69;1030669;28;20101;-72
2023/05/05 00:41:07;;;;;;;5.32;3.67;;;;;;;8.21;100.00;95926.72;1026586;28;20254;-70
2023/05/05 00:41:38;;;;;;;6.63;4.65;;;;;;;8.20;100.00;95919.91;1030522;28;20069;-70
2023/05/05 00:42:08;;;;;;;5.63;3.83;;;;;;;8.20;100.00;95920.69;1018527;29;20481;-70
2023/05/05 00:42:46;;;;;;;6.20;4.05;;;;;;;8.15;100.00;95914.63;1014839;29;20422;-70
2023/05/05 00:43:16;;;;;;;5.55;4.00;;;;;;;8.12;100.00;95913.28;1026131;28;20018;-70
2023/05/05 00:43:47;;;;;;;6.68;3.83;;;;;;;8.16;100.00;95922.22;1025806;28;20258;-71
2023/05/05 00:44:39;;;;;;;6.15;4.63;;;;;;;8.16;100.00;95917.00;1026679;28;20030;-69
2023/05/05 00:45:10;;;;;;;6.68;3.85;;;;;;;8.15;100.00;95923.25;1022280;29;20397;-69
2023/05/05 00:45:43;;;;;;;6.45;3.95;;;;;;;8.16;100.00;95924.06;1024722;28;20269;-71
2023/05/05 00:46:27;;;;;;;7.03;4.60;;;;;;;8.11;100.00;95911.69;1022704;29;20771;-70
2023/05/05 00:46:57;;;;;;;5.00;3.40;;;;;;;8.14;100.00;95924.28;1024937;28;20764;-70
2023/05/05 00:47:28;;;;;;;5.85;3.95;;;;;;;8.14;100.00;95924.28;1020739;29;20379;-70
2023/05/05 00:47:58;;;;;;;6.63;3.92;;;;;;;8.07;100.00;95918.44;1020671;29;20375;-71
2023/05/05 00:48:29;;;;;;;8.95;4.07;;;;;;;8.13;100.00;95927.94;1022753;28;20031;-70
2023/05/05 00:49:00;;;;;;;5.80;3.60;;;;;;;8.13;100.00;95929.75;1028095;28;20651;-70
2023/05/05 00:49:31;;;;;;;6.40;4.47;;;;;;;8.10;100.00;95933.63;1026398;28;20027;-70
2023/05/05 00:50:10;;;;;;;7.22;4.07;;;;;;;8.11;100.00;95932.59;1018343;29;20034;-71
2023/05/05 00:50:41;;;;;;;4.45;3.60;;;;;;;8.08;100.00;95932.28;1018417;29;20279;-70
2023/05/05 00:51:12;;;;;;;6.43;4.22;;;;;;;8.08;100.00;95930.50;1022606;29;20707;-70
2023/05/05 00:51:42;;;;;;;8.55;3.97;;;;;;;8.09;100.00;95929.47;1022215;29;20019;-70
2023/05/05 00:52:13;;;;;;;8.55;5.22;;;;;;;8.09;100.00;95924.22;1021367;29;20271;-70
2023/05/05 00:52:43;;;;;;;9.00;4.32;;;;;;;8.05;100.00;95915.28;1022510;29;20059;-69
2023/05/05 00:53:14;;;;;;;4.88;4.10;;;;;;;8.11;100.00;95927.38;1018586;29;20031;-70
2023/05/05 00:53:45;;;;;;;7.18;4.53;;;;;;;8.12;100.00;95925.56;1014603;29;20859;-70
2023/05/05 00:54:15;;;;;;;6.78;4.47;;;;;;;8.12;100.00;95921.13;1018298;29;20027;-70
2023/05/05 00:54:46;;;;;;;5.70;3.97;;;;;;;8.05;100.00;95915.28;1022204;28;20031;-69
2023/05/05 00:55:17;;;;;;;8.07;4.47;;;;;;;8.11;100.00;95927.38;1026453;28;20541;-70
2023/05/05 00:55:47;;;;;;;5.70;4.22;;;;;;;8.11;100.00;95929.19;1026053;28;20077;-70
2023/05/05 00:56:18;;;;;;;9.02;4.82;;;;;;;8.11;100.00;95930.00;1023732;28;20103;-70
2023/05/05 00:56:49;;;;;;;5.65;4.25;;;;;;;8.09;100.00;95926.06;1022255;29;20058;-70
2023/05/05 00:57:20;;;;;;;8.18;4.18;;;;;;;8.09;100.00;95931.28;1022540;28;20278;-70
2023/05/05 00:57:50;;;;;;;7.97;4.85;;;;;;;8.04;100.00;95917.09;1022365;28;20031;-70
2023/05/05 00:58:21;;;;;;;8.77;4.80;;;;;;;8.12;100.00;95921.13;1022367;29;20022;-70
2023/05/05 00:58:51;;;;;;;6.43;4.78;;;;;;;8.13;100.00;95927.94;1021869;29;20130;-71
2023/05/05 00:59:22;;;;;;;7.63;4.90;;;;;;;8.15;100.00;95925.88;1026362;28;20026;-70
2023/05/05 00:59:52;;;;;;;10.20;4.55;;;;;;;8.15;100.00;95920.66;1022210;29;20037;-70
2023/05/05 01:00:23;;;;;;;5.65;4.03;;;;;;;8.18;100.00;95925.41;1025659;28;20030;-70
2023/05/05 01:00:53;;;;;;;7.18;4.30;;;;;;;8.21;100.00;95926.72;1025336;28;20441;-70
2023/05/05 01:01:24;;;;;;;7.78;4.40;;;;;;;8.20;100.00;95928.53;1031409;28;20026;-70
2023/05/05 01:01:54;;;;;;;5.57;4.22;;;;;;;8.20;100.00;95922.53;1034271;28;20025;-71
2023/05/05 01:02:25;;;;;;;7.35;4.22;;;;;;;8.17;100.00;95923.78;1034668;28;20033;-70
2023/05/05 01:02:55;;;;;;;7.43;4.45;;;;;;;8.18;100.00;95919.34;1042801;28;20029;-71
2023/05/05 01:03:26;;;;;;;7.38;4.32;;;;;;;8.16;100.00;95916.22;1034541;28;20026;-70
2023/05/05 01:03:56;;;;;;;6.13;4.43;;;;;;;8.17;100.00;95921.19;1026121;28;20023;-71
2023/05/05 01:04:26;;;;;;;7.80;4.57;;;;;;;8.16;100.00;95916.22;1022435;29;20036;-70
2023/05/05 01:04:57;;;;;;;6.32;4.22;;;;;;;8.09;100.00;95903.31;1022279;28;20599;-69
2023/05/05 01:05:32;;;;;;;11.93;5.18;;;;;;;8.15;100.00;95915.44;1026485;28;20393;-70
2023/05/05 01:06:03;;;;;;;7.05;4.20;;;;;;;8.16;100.00;95921.44;1026794;28;20232;-70
2023/05/05 01:06:57;;;;;;;6.78;3.92;;;;;;;8.11;100.00;95919.53;1030086;28;20605;-70
2023/05/05 01:07:47;;;;;;;8.52;4.40;;;;;;;8.12;100.00;95918.53;1030362;28;20726;-71
2023/05/05 01:08:25;;;;;;;6.03;4.10;;;;;;;8.10;100.00;95915.34;1029848;28;20277;-70
2023/05/05 01:09:22;;;;;;;6.95;4.40;;;;;;;8.04;100.00;95909.25;1029615;28;20266;-69
2023/05/05 01:10:08;;;;;;;6.10;4.05;;;;;;;8.08;100.00;95922.66;1026666;28;20310;-71
2023/05/05 01:10:45;;;;;;;6.47;4.30;;;;;;;8.00;100.00;95912.59;1030274;28;20984;-71
2023/05/05 01:11:25;;;;;;;8.98;4.20;;;;;;;8.03;100.00;95918.13;1026302;28;20597;-70
2023/05/05 01:12:13;;;;;;;6.38;4.43;;;;;;;7.95;100.00;95910.72;1018399;29;20598;-71
2023/05/05 01:13:01;;;;;;;7.47;4.40;;;;;;;7.99;100.00;95918.88;1022438;29;20282;-70
2023/05/05 01:13:41;;;;;;;5.72;4.30;;;;;;;7.97;100.00;95920.91;1022413;29;20267;-71
2023/05/05 01:14:13;;;;;;;8.07;4.88;;;;;;;7.95;100.00;95921.19;1022437;29;21008;-70
2023/05/05 01:14:50;;;;;;;6.07;4.20;;;;;;;7.91;100.00;95916.66;1025818;28;20460;-71
2023/05/05 01:15:38;;;;;;;9.15;4.28;;;;;;;7.88;100.00;95915.34;1020522;29;20285;-70
2023/05/05 01:16:17;;;;;;;9.50;4.80;;;;;;;7.89;100.00;95921.34;1018213;29;20799;-71
2023/05/05 01:17:03;;;;;;;8.75;4.40;;;;;;;7.89;100.00;95916.13;1022081;29;20855;-71
2023/05/05 01:17:42;;;;;;;7.82;4.22;;;;;;;7.87;100.00;95926.00;1026395;28;20803;-70
2023/05/05 01:18:15;;;;;;;6.70;4.43;;;;;;;7.87;100.00;95926.00;1026134;28;20275;-70
2023/05/05 01:18:55;;;;;;;7.45;4.50;;;;;;;7.85;100.00;95925.47;1032878;28;20316;-70
2023/05/05 01:19:53;;;;;;;7.15;4.25;;;;;;;7.85;100.00;95926.25;1030439;28;20333;-70
2023/05/05 01:20:28;;;;;;;5.97;4.15;;;;;;;7.77;100.00;95914.38;1031124;28;20460;-71
2023/05/05 01:21:25;;;;;;;6.97;4.60;;;;;;;7.83;100.00;95923.09;1022229;29;20263;-70
2023/05/05 01:22:01;;;;;;;7.13;4.50;;;;;;;7.83;100.00;95922.31;1021253;29;20274;-70
2023/05/05 01:22:37;;;;;;;9.35;4.78;;;;;;;7.84;100.00;95926.50;1019203;28;20327;-71
2023/05/05 01:23:08;;;;;;;8.35;4.63;;;;;;;7.84;100.00;95921.25;1030151;28;20829;-71
2023/05/05 01:23:57;;;;;;;13.45;4.53;;;;;;;7.86;100.00;95917.38;1024082;28;20743;-71
2023/05/05 01:24:49;;;;;;;9.00;4.80;;;;;;;7.67;100.00;95888.13;1025426;28;20843;-71
2023/05/05 01:25:32;;;;;;;9.27;5.07;;;;;;;7.87;100.00;95912.94;1020308;28;21065;-70
2023/05/05 01:26:18;;;;;;;11.82;5.28;;;;;;;8.00;100.00;95917.81;1026546;28;20701;-70
2023/05/05 01:26:54;;;;;;;8.32;5.32;;;;;;;8.00;100.00;95917.81;1029748;28;20312;-70
2023/05/05 01:27:49;;;;;;;9.32;6.32;;;;;;;8.05;100.00;95920.53;1030371;28;20323;-70
2023/05/05 01:28:41;;;;;;;7.25;5.03;;;;;;;8.14;100.00;95924.28;1029994;28;20834;-71
2023/05/05 01:29:32;;;;;;;8.05;4.97;;;;;;;8.20;100.00;95918.09;1034528;28;20285;-70
2023/05/05 01:30:21;;;;;;;13.55;5.35;;;;;;;8.23;100.00;95917.59;1039834;28;20272;-70
2023/05/05 01:30:51;;;;;;;10.73;5.13;;;;;;;8.25;100.00;95920.78;1042857;28;20354;-70
2023/05/05 01:31:50;;;;;;;7.15;4.78;;;;;;;8.28;100.00;95919.47;1038142;28;20268;-69
2023/05/05 01:32:27;;;;;;;7.85;5.20;;;;;;;8.31;100.00;95923.44;1034363;28;20083;-70
2023/05/05 01:33:01;;;;;;;10.40;5.10;;;;;;;8.31;100.00;95912.97;1034250;28;20805;-71
2023/05/05 01:33:34;;;;;;;12.95;5.50;;;;;;;8.30;100.00;95908.78;1030218;28;20372;-70
2023/05/05 01:34:07;;;;;;;7.97;5.45;;;;;;;8.29;100.00;95925.53;1025604;28;20274;-70
2023/05/05 01:34:57;;;;;;;6.72;4.97;;;;;;;8.25;100.00;95917.38;1026181;28;20274;-70
2023/05/05 01:35:29;;;;;;;8.40;5.07;;;;;;;8.19;100.00;95911.28;1029941;28;20686;-70
2023/05/05 01:36:04;;;;;;;7.32;5.00;;;;;;;8.24;100.00;95919.19;1030646;28;20277;-71
2023/05/05 01:36:36;;;;;;;7.53;4.63;;;;;;;8.22;100.00;95918.66;1030500;28;20281;-70
2023/05/05 01:37:12;;;;;;;6.95;4.50;;;;;;;8.16;100.00;95917.00;1026115;28;20756;-70
2023/05/05 01:37:49;;;;;;;11.30;5.25;;;;;;;8.16;100.00;95917.00;1026426;28;20269;-71
2023/05/05 01:38:33;;;;;;;8.85;5.22;;;;;;;8.15;100.00;95919.84;1026253;28;20265;-71
2023/05/05 01:39:03;;;;;;;7.13;4.60;;;;;;;8.11;100.00;95916.13;1022066;29;20752;-70
2023/05/05 01:39:34;;;;;;;8.10;4.72;;;;;;;8.09;100.00;95921.63;1022163;28;20362;-70
2023/05/05 01:40:05;;;;;;;7.57;4.85;;;;;;;8.06;100.00;95922.09;1022245;29;20030;-70
2023/05/05 01:40:37;;;;;;;7.82;4.53;;;;;;;8.03;100.00;95917.34;1022112;29;20023;-71
2023/05/05 01:41:13;;;;;;;9.40;4.72;;;;;;;8.03;100.00;95917.34;1030133;28;20802;-70
2023/05/05 01:41:47;;;;;;;7.10;4.70;;;;;;;8.01;100.00;95922.84;1034217;28;20272;-70
2023/05/05 01:42:18;;;;;;;11.57;4.38;;;;;;;8.02;100.00;95919.19;1028944;28;20654;-70
2023/05/05 01:42:48;;;;;;;6.93;4.57;;;;;;;7.99;100.00;95921.47;1022033;29;20275;-70
2023/05/05 01:43:19;;;;;;;7.78;4.75;;;;;;;8.00;100.00;95918.63;1026064;28;20030;-71
2023/05/05 01:43:49;;;;;;;8.93;4.97;;;;;;;7.92;100.00;95915.66;1015888;29;20028;-70
2023/05/05 01:44:20;;;;;;;10.32;4.88;;;;;;;8.00;100.00;95926.47;1034135;28;20037;-71
2023/05/05 01:44:51;;;;;;;7.93;4.47;;;;;;;7.97;100.00;95918.31;1034211;28;20026;-71
2023/05/05 01:45:24;;;;;;;7.45;5.20;;;;;;;7.98;100.00;95925.94;1025992;28;20023;-70
2023/05/05 01:45:54;;;;;;;7.75;4.88;;;;;;;7.92;100.00;95920.88;1026083;28;20113;-71
2023/05/05 01:46:24;;;;;;;9.88;4.88;;;;;;;7.95;100.00;95923.00;1026250;28;20274;-70
2023/05/05 01:46:55;;;;;;;7.60;4.93;;;;;;;7.96;100.00;95927.19;1030111;28;20026;-70
2023/05/05 01:47:25;;;;;;;10.32;5.13;;;;;;;7.95;100.00;95926.41;1025970;28;20795;-70
2023/05/05 01:47:56;;;;;;;8.77;5.18;;;;;;;7.92;100.00;95921.66;1021993;29;20053;-71
2023/05/05 01:48:28;;;;;;;8.07;4.90;;;;;;;7.94;100.00;95924.00;1026176;28;20041;-70
2023/05/05 01:48:59;;;;;;;10.68;5.10;;;;;;;7.90;100.00;95928.16;1025102;28;20532;-69
2023/05/05 01:49:30;;;;;;;8.02;5.30;;;;;;;7.91;100.00;95925.28;1022257;29;20266;-70
2023/05/05 01:50:00;;;;;;;10.88;5.65;;;;;;;7.91;100.00;95924.50;1018151;29;20473;-70
2023/05/05 01:50:34;;;;;;;6.68;4.40;;;;;;;7.87;100.00;95918.97;1022088;29;20027;-70
2023/05/05 01:51:05;;;;;;;9.98;5.10;;;;;;;7.86;100.00;95919.22;1025623;28;20054;-69
2023/05/05 01:51:35;;;;;;;9.27;5.18;;;;;;;7.89;100.00;95918.72;1026135;28;20274;-70
2023/05/05 01:52:06;;;;;;;6.13;4.68;;;;;;;7.91;100.00;95925.28;1029931;28;20026;-69
2023/05/05 01:52:36;;;;;;;8.43;4.97;;;;;;;7.92;100.00;95920.88;1022299;29;20027;-70
2023/05/05 01:53:08;;;;;;;6.35;4.57;;;;;;;7.92;100.00;95928.72;1022142;29;20031;-70
2023/05/05 01:53:38;;;;;;;6.68;5.13;;;;;;;7.90;100.00;95922.91;1026101;28;20027;-70
2023/05/05 01:54:09;;;;;;;7.85;5.15;;;;;;;7.95;100.00;95930.84;1021209;29;20267;-70
2023/05/05 01:54:40;;;;;;;9.27;6.80;;;;;;;7.97;100.00;95913.09;1030183;28;20492;-69
2023/05/05 01:55:10;;;;;;;9.00;6.57;;;;;;;8.13;100.00;95933.16;1026134;28;20110;-70
2023/05/05 01:55:41;;;;;;;9.93;6.38;;;;;;;8.15;100.00;95920.66;1026092;28;20031;-70
2023/05/05 01:56:11;;;;;;;10.38;6.63;;;;;;;8.25;100.00;95923.41;1020096;29;20031;-70
2023/05/05 01:56:42;;;;;;;8.88;6.85;;;;;;;8.34;100.00;95928.19;1026302;28;20101;-70
2023/05/05 01:57:12;;;;;;;10.10;6.95;;;;;;;8.36;100.00;95923.50;1030122;28;20493;-70
2023/05/05 01:57:43;;;;;;;12.30;6.95;;;;;;;8.38;100.00;95924.06;1026331;28;20019;-70
2023/05/05 01:58:13;;;;;;;8.85;6.05;;;;;;;8.37;100.00;95925.88;1022101;29;20019;-72
2023/05/05 01:58:44;;;;;;;10.35;6.30;;;;;;;8.36;100.00;95918.28;1021610;29;20474;-69
2023/05/05 01:59:14;;;;;;;8.77;5.88;;;;;;;8.41;100.00;95931.44;1026161;28;20019;-70
2023/05/05 01:59:45;;;;;;;13.10;7.60;;;;;;;8.47;100.00;95927.84;1026042;28;20081;-72
2023/05/05 02:00:17;;;;;;;9.50;6.28;;;;;;;8.50;100.00;95929.97;1030006;28;20026;-70
2023/05/05 02:00:47;;;;;;;9.80;5.70;;;;;;;8.35;100.00;95907.03;1024807;28;20026;-70
2023/05/05 02:01:20;;;;;;;11.95;6.15;;;;;;;8.56;100.00;95921.16;1018168;29;20302;-70
2023/05/05 02:01:51;;;;;;;9.48;6.07;;;;;;;8.55;100.00;95919.59;1022007;29;20041;-70
2023/05/05 02:02:21;;;;;;;9.95;7.00;;;;;;;8.60;100.00;95922.25;1017927;29;20273;-70
2023/05/05 02:02:51;;;;;;;11.57;6.90;;;;;;;8.42;100.00;95893.81;1021940;29;20026;-71
2023/05/05 02:03:22;;;;;;;9.32;6.43;;;;;;;8.66;100.00;95916.03;1026209;28;20031;-71
2023/05/05 02:03:54;;;;;;;10.68;6.78;;;;;;;8.68;100.00;95926.25;1025980;28;20140;-71
2023/05/05 02:04:25;;;;;;;11.38;6.53;;;;;;;8.63;100.00;95919.16;1025991;28;20034;-70
2023/05/05 02:04:55;;;;;;;10.23;6.25;;;;;;;8.63;100.00;95924.38;1025989;28;20303;-71
2023/05/05 02:05:26;;;;;;;12.02;6.80;;;;;;;8.64;100.00;95918.09;1030155;28;20093;-70
2023/05/05 02:05:56;;;;;;;14.23;6.75;;;;;;;8.65;100.00;95919.69;1026095;28;20018;-71
2023/05/05 02:06:27;;;;;;;9.70;6.03;;;;;;;8.69;100.00;95920.78;1018088;29;20107;-71
2023/05/05 02:06:57;;;;;;;11.13;7.10;;;;;;;8.78;100.00;95920.34;1018153;29;20035;-71
2023/05/05 02:07:28;;;;;;;10.57;6.30;;;;;;;8.89;100.00;95930.66;1018144;29;20036;-71
2023/05/05 02:07:58;;;;;;;11.23;6.82;;;;;;;8.87;100.00;95931.94;1017905;29;20028;-70
2023/05/05 02:08:29;;;;;;;11.07;7.25;;;;;;;8.85;100.00;95934.00;1017774;29;20107;-70
2023/05/05 02:09:00;;;;;;;8.75;6.88;;;;;;;8.80;100.00;95926.91;1021391;28;20058;-71
2023/05/05 02:09:30;;;;;;;11.10;6.60;;;;;;;8.83;100.00;95941.31;1026101;28;20041;-71
2023/05/05 02:10:01;;;;;;;9.68;7.18;;;;;;;8.80;100.00;95931.34;1033838;28;20030;-71
2023/05/05 02:10:32;;;;;;;9.63;6.55;;;;;;;8.82;100.00;95929.25;1029910;28;20037;-70
2023/05/05 02:11:02;;;;;;;9.63;6.32;;;;;;;8.80;100.00;95932.13;1030258;28;20697;-70
2023/05/05 02:11:32;;;;;;;10.35;7.53;;;;;;;8.81;100.00;95938.16;1025985;28;20049;-71
2023/05/05 02:12:03;;;;;;;10.48;7.00;;;;;;;8.81;100.00;95931.09;1026009;28;20034;-70
2023/05/05 02:12:34;;;;;;;9.68;6.57;;;;;;;8.81;100.00;95933.72;1030213;28;20297;-71
2023/05/05 02:13:04;;;;;;;9.18;6.68;;;;;;;8.80;100.00;95931.34;1029960;28;20121;-71
2023/05/05 02:13:35;;;;;;;8.68;6.47;;;;;;;8.77;100.00;95929.22;1026199;28;20035;-71
2023/05/05 02:14:05;;;;;;;10.32;6.45;;;;;;;8.81;100.00;95935.53;1026019;28;20023;-70
2023/05/05 02:14:36;;;;;;;12.43;6.53;;;;;;;8.81;100.00;95938.94;1029709;28;20081;-71
2023/05/05 02:15:07;;;;;;;10.75;6.95;;;;;;;8.82;100.00;95944.97;1021798;29;20031;-71
2023/05/05 02:15:38;;;;;;;13.30;6.72;;;;;;;8.83;100.00;95938.72;1030187;28;20048;-71
2023/05/05 02:16:08;;;;;;;9.65;7.00;;;;;;;8.76;100.00;95932.88;1029930;28;20632;-70
2023/05/05 02:16:40;;;;;;;9.60;6.78;;;;;;;8.82;100.00;95942.34;1021893;29;20086;-70
2023/05/05 02:17:10;;;;;;;11.48;6.88;;;;;;;8.81;100.00;95943.38;1021934;29;20062;-70
2023/05/05 02:17:43;;;;;;;12.57;7.43;;;;;;;8.82;100.00;95942.34;1022382;28;20286;-71
2023/05/05 02:18:14;;;;;;;10.65;6.95;;;;;;;8.81;100.00;95933.72;1022438;28;20038;-70
2023/05/05 02:18:45;;;;;;;10.50;6.95;;;;;;;8.83;100.00;95936.09;1022288;28;20403;-70
2023/05/05 02:19:15;;;;;;;11.07;7.35;;;;;;;8.84;100.00;95943.69;1021849;29;20799;-71
2023/05/05 02:19:46;;;;;;;10.80;6.25;;;;;;;8.83;100.00;95946.56;1022150;29;20552;-70
2023/05/05 02:20:16;;;;;;;11.13;6.63;;;;;;;8.80;100.00;95941.81;1018194;29;20484;-70
2023/05/05 02:20:47;;;;;;;9.88;6.50;;;;;;;8.80;100.00;95947.06;1018378;29;20035;-71
2023/05/05 02:21:18;;;;;;;10.02;6.43;;;;;;;8.71;100.00;95934.38;1025845;28;20023;-70
2023/05/05 02:21:49;;;;;;;10.35;6.57;;;;;;;8.77;100.00;95944.91;1018394;29;20039;-69
2023/05/05 02:22:19;;;;;;;10.98;7.07;;;;;;;8.68;100.00;95937.50;1019043;29;20294;-70
2023/05/05 02:22:50;;;;;;;9.20;6.20;;;;;;;8.76;100.00;95940.75;1021724;29;20050;-70
2023/05/05 02:23:20;;;;;;;10.70;6.18;;;;;;;8.71;100.00;95942.25;1026590;28;20035;-70
2023/05/05 02:23:51;;;;;;;7.78;5.82;;;;;;;8.65;100.00;95935.41;1031049;28;20034;-70
2023/05/05 02:24:22;;;;;;;9.90;7.13;;;;;;;8.70;100.00;95945.91;1030697;28;20030;-70
2023/05/05 02:24:53;;;;;;;9.57;6.32;;;;;;;8.65;100.00;95935.41;1022048;29;20019;-71
2023/05/05 02:25:25;;;;;;;9.73;6.22;;;;;;;8.68;100.00;95940.09;1026032;28;20022;-70
2023/05/05 02:25:59;;;;;;;9.85;6.88;;;;;;;8.70;100.00;95945.13;1026188;28;20117;-68
2023/05/05 02:26:29;;;;;;;9.45;6.80;;;;;;;8.66;100.00;95936.97;1026704;28;20317;-70
2023/05/05 02:27:01;;;;;;;10.13;6.22;;;;;;;8.71;100.00;95944.84;1022469;29;20724;-69
2023/05/05 02:27:32;;;;;;;9.23;6.60;;;;;;;8.73;100.00;95947.25;1020061;28;20457;-70
2023/05/05 02:28:03;;;;;;;8.85;6.32;;;;;;;8.73;100.00;95948.03;1026526;28;20782;-69
2023/05/05 02:28:43;;;;;;;10.27;6.35;;;;;;;8.73;100.00;95948.03;1026046;28;20281;-70
2023/05/05 02:29:27;;;;;;;9.75;6.25;;;;;;;8.68;100.00;95945.34;1030461;28;20014;-70
2023/05/05 02:29:59;;;;;;;9.00;6.40;;;;;;;8.74;100.00;95952.22;1026696;28;20057;-73
2023/05/05 02:30:31;;;;;;;8.25;6.55;;;;;;;8.68;100.00;95942.72;1030553;28;20264;-69
2023/05/05 02:31:01;;;;;;;8.55;6.50;;;;;;;8.75;100.00;95955.63;1022563;29;20263;-71
2023/05/05 02:31:35;;;;;;;11.63;6.50;;;;;;;8.74;100.00;95952.22;1018524;29;20382;-70
2023/05/05 02:32:09;;;;;;;9.75;6.82;;;;;;;8.74;100.00;95954.84;1022512;29;20436;-70
2023/05/05 02:32:43;;;;;;;11.95;6.22;;;;;;;8.73;100.00;95945.41;1022617;29;20274;-70
2023/05/05 02:33:13;;;;;;;11.07;6.50;;;;;;;8.76;100.00;95948.59;1020024;29;20723;-70
2023/05/05 02:33:44;;;;;;;11.45;6.30;;;;;;;8.79;100.00;95950.72;1022320;29;20259;-70
2023/05/05 02:34:21;;;;;;;10.73;6.97;;;;;;;8.84;100.00;95959.38;1026638;28;20571;-70
2023/05/05 02:34:51;;;;;;;8.48;6.05;;;;;;;8.85;100.00;95954.94;1022658;29;20031;-70